createdAt,value
2023-03-15T00:02:17.477Z,6.57
2023-03-15T00:04:45.501Z,11.43
2023-03-15T00:07:14.852Z,10.37
2023-03-15T00:09:42.958Z,7.40
2023-03-15T00:12:12.187Z,10.20
2023-03-15T00:14:40.233Z,4.40
2023-03-15T00:17:08.330Z,7.33
2023-03-15T00:19:36.399Z,10.03
2023-03-15T00:22:04.449Z,5.53
2023-03-15T00:24:33.797Z,6.83
2023-03-15T00:27:01.843Z,3.50
2023-03-15T00:29:29.929Z,6.47
2023-03-15T00:31:57.983Z,4.37
2023-03-15T00:34:26.509Z,8.33
2023-03-15T00:36:54.713Z,2.30
2023-03-15T00:39:25.663Z,2.80
2023-03-15T00:41:56.812Z,3.30
2023-03-15T00:44:25.269Z,6.27
2023-03-15T00:46:53.426Z,6.63
2023-03-15T00:49:21.512Z,6.10
2023-03-15T00:51:49.580Z,5.60
2023-03-15T00:54:17.569Z,3.97
2023-03-15T00:56:45.818Z,4.07
2023-03-15T00:59:15.170Z,4.60
2023-03-15T01:01:44.868Z,5.17
2023-03-15T01:04:13.411Z,3.13
2023-03-15T01:06:42.314Z,3.83
2023-03-15T01:09:11.207Z,3.93
2023-03-15T01:11:39.872Z,5.47
2023-03-15T01:14:09.154Z,5.50
2023-03-15T01:16:39.626Z,2.63
2023-03-15T01:19:10.863Z,2.10
2023-03-15T01:21:39.193Z,4.83
2023-03-15T01:24:07.624Z,4.30
2023-03-15T01:26:35.655Z,5.30
2023-03-15T01:29:04.651Z,3.77
2023-03-15T01:31:33.190Z,6.77
2023-03-15T01:34:02.610Z,9.33
2023-03-15T01:36:33.611Z,9.63
2023-03-15T01:39:01.660Z,6.30
2023-03-15T01:41:41.440Z,4.80
2023-03-15T01:44:13.703Z,10.20
2023-03-15T01:46:41.762Z,2.83
2023-03-15T01:49:22.713Z,6.00
2023-03-15T01:51:54.253Z,6.47
2023-03-15T01:54:30.486Z,5.23
2023-03-15T01:57:02.933Z,1.53
2023-03-15T01:59:34.057Z,2.07
2023-03-15T02:02:02.825Z,3.17
2023-03-15T02:04:36.143Z,2.90
2023-03-15T02:07:06.183Z,8.90
2023-03-15T02:09:43.549Z,4.00
2023-03-15T02:12:12.486Z,6.00
2023-03-15T02:14:41.796Z,9.60
2023-03-15T02:17:13.420Z,3.57
2023-03-15T02:19:54.023Z,3.93
2023-03-15T02:22:32.739Z,5.40
2023-03-15T02:25:09.369Z,8.07
2023-03-15T02:27:40.262Z,9.70
2023-03-15T02:30:10.830Z,7.43
2023-03-15T02:32:38.991Z,7.47
2023-03-15T02:35:07.680Z,2.80
2023-03-15T02:37:35.736Z,8.50
2023-03-15T02:40:05.850Z,4.30
2023-03-15T02:42:34.065Z,4.60
2023-03-15T02:45:04.195Z,5.00
2023-03-15T02:47:34.701Z,8.13
2023-03-15T02:50:03.492Z,4.70
2023-03-15T02:52:31.667Z,5.13
2023-03-15T02:54:59.711Z,3.73
2023-03-15T02:57:27.866Z,3.43
2023-03-15T02:59:57.259Z,7.10
2023-03-15T03:02:26.687Z,7.87
2023-03-15T03:04:54.794Z,4.03
2023-03-15T03:07:22.869Z,1.90
2023-03-15T03:09:57.463Z,7.63
2023-03-15T03:12:27.221Z,3.33
2023-03-15T03:14:56.613Z,7.40
2023-03-15T03:17:26.903Z,6.73
2023-03-15T03:19:55.224Z,5.03
2023-03-15T03:22:30.336Z,6.00
2023-03-15T03:24:58.406Z,2.83
2023-03-15T03:27:26.534Z,1.93
2023-03-15T03:29:54.923Z,1.50
2023-03-15T03:32:23.023Z,8.43
2023-03-15T03:34:55.454Z,7.73
2023-03-15T03:37:24.955Z,5.90
2023-03-15T03:40:09.001Z,2.40
2023-03-15T03:42:37.765Z,5.23
2023-03-15T03:45:08.457Z,2.50
2023-03-15T03:47:41.784Z,7.60
2023-03-15T03:50:12.602Z,2.23
2023-03-15T03:52:43.761Z,6.10
2023-03-15T03:55:15.974Z,5.07
2023-03-15T03:57:45.038Z,6.77
2023-03-15T04:00:21.595Z,4.43
2023-03-15T04:02:49.699Z,5.03
2023-03-15T04:05:19.950Z,5.63
2023-03-15T04:07:48.121Z,3.20
2023-03-15T04:10:18.106Z,3.03
2023-03-15T04:12:49.522Z,6.70
2023-03-15T04:15:17.677Z,4.80
2023-03-15T04:17:45.885Z,2.80
2023-03-15T04:20:15.439Z,9.13
2023-03-15T04:22:49.536Z,3.80
2023-03-15T04:25:50.693Z,3.27
2023-03-15T04:28:38.967Z,7.30
2023-03-15T04:31:37.737Z,2.07
2023-03-15T04:34:29.492Z,5.20
2023-03-15T04:37:07.602Z,7.37
2023-03-15T04:39:52.432Z,1.63
2023-03-15T04:42:46.696Z,6.90
2023-03-15T04:45:42.144Z,6.90
2023-03-15T04:48:39.227Z,5.07
2023-03-15T04:51:29.528Z,6.83
2023-03-15T04:54:28.198Z,7.17
2023-03-15T04:57:20.460Z,2.93
2023-03-15T05:00:13.480Z,1.63
2023-03-15T05:03:00.384Z,4.63
2023-03-15T05:05:42.862Z,2.87
2023-03-15T05:08:20.830Z,8.33
2023-03-15T05:11:06.590Z,7.43
2023-03-15T05:14:08.281Z,6.90
2023-03-15T05:16:48.244Z,5.77
2023-03-15T05:19:34.586Z,6.60
2023-03-15T05:22:28.154Z,6.80
2023-03-15T05:25:15.746Z,7.30
2023-03-15T05:28:19.404Z,5.17
2023-03-15T05:31:02.425Z,5.43
2023-03-15T05:33:49.505Z,3.27
2023-03-15T05:36:34.746Z,5.17
2023-03-15T05:39:22.798Z,3.37
2023-03-15T05:42:09.827Z,5.17
2023-03-15T05:44:37.821Z,4.97
2023-03-15T05:47:27.461Z,4.53
2023-03-15T05:50:21.915Z,5.57
2023-03-15T05:52:58.341Z,5.03
2023-03-15T05:55:44.791Z,4.27
2023-03-15T05:58:31.338Z,4.43
2023-03-15T06:01:24.935Z,4.43
2023-03-15T06:04:07.347Z,6.73
2023-03-15T06:06:36.571Z,5.43
2023-03-15T06:09:07.162Z,5.67
2023-03-15T06:11:36.231Z,3.20
2023-03-15T06:14:04.313Z,2.80
2023-03-15T06:16:38.453Z,4.90
2023-03-15T06:19:07.933Z,5.10
2023-03-15T06:21:35.960Z,4.53
2023-03-15T06:24:10.338Z,2.13
2023-03-15T06:26:38.797Z,2.83
2023-03-15T06:29:07.749Z,2.60
2023-03-15T06:31:35.921Z,3.00
2023-03-15T06:34:11.854Z,3.10
2023-03-15T06:36:39.910Z,2.60
2023-03-15T06:39:08.016Z,3.73
2023-03-15T06:41:36.074Z,4.60
2023-03-15T06:44:12.569Z,4.40
2023-03-15T06:46:41.954Z,3.07
2023-03-15T06:49:11.334Z,3.83
2023-03-15T06:51:39.680Z,3.97
2023-03-15T06:54:07.843Z,6.70
2023-03-15T06:56:37.339Z,4.93
2023-03-15T06:59:06.026Z,4.37
2023-03-15T07:01:34.136Z,3.80
2023-03-15T07:04:02.227Z,2.40
2023-03-15T07:06:31.580Z,2.27
2023-03-15T07:08:59.622Z,4.27
2023-03-15T07:11:27.671Z,6.97
2023-03-15T07:13:55.693Z,3.83
2023-03-15T07:16:23.787Z,2.40
2023-03-15T07:18:53.564Z,2.70
2023-03-15T07:21:21.604Z,2.60
2023-03-15T07:23:50.981Z,3.10
2023-03-15T07:26:18.986Z,1.83
2023-03-15T07:28:47.098Z,1.60
2023-03-15T07:31:15.592Z,3.37
2023-03-15T07:33:43.702Z,4.07
2023-03-15T07:36:11.760Z,2.67
2023-03-15T07:38:42.025Z,1.77
2023-03-15T07:41:13.148Z,3.70
2023-03-15T07:43:49.780Z,3.20
2023-03-15T07:46:19.587Z,3.97
2023-03-15T07:48:47.778Z,2.37
2023-03-15T07:51:15.826Z,2.03
2023-03-15T07:53:43.843Z,4.00
2023-03-15T07:56:13.216Z,3.40
2023-03-15T07:58:41.281Z,4.03
2023-03-15T08:01:10.233Z,4.90
2023-03-15T08:03:38.948Z,2.67
2023-03-15T08:06:07.294Z,2.87
2023-03-15T08:08:35.517Z,4.10
2023-03-15T08:11:05.373Z,5.47
2023-03-15T08:13:35.050Z,6.43
2023-03-15T08:16:03.222Z,3.60
2023-03-15T08:18:31.428Z,6.90
2023-03-15T08:20:59.779Z,2.80
2023-03-15T08:23:27.785Z,3.00
2023-03-15T08:25:55.760Z,5.97
2023-03-15T08:28:23.728Z,10.30
2023-03-15T08:30:53.064Z,8.33
2023-03-15T08:33:22.200Z,11.30
2023-03-15T08:35:54.136Z,5.10
2023-03-15T08:38:22.158Z,3.80
2023-03-15T08:40:50.162Z,2.80
2023-03-15T08:43:18.239Z,6.37
2023-03-15T08:46:00.220Z,4.83
2023-03-15T08:48:31.462Z,3.90
2023-03-15T08:51:04.033Z,6.03
2023-03-15T08:53:32.624Z,5.87
2023-03-15T08:56:00.936Z,5.67
2023-03-15T08:58:29.077Z,7.63
2023-03-15T09:00:57.810Z,2.57
2023-03-15T09:03:25.895Z,6.47
2023-03-15T09:05:58.690Z,2.73
2023-03-15T09:08:27.599Z,3.33
2023-03-15T09:10:56.709Z,7.10
2023-03-15T09:13:25.140Z,5.17
2023-03-15T09:15:54.300Z,3.17
2023-03-15T09:18:23.206Z,2.27
2023-03-15T09:20:51.243Z,3.10
2023-03-15T09:23:20.688Z,6.67
2023-03-15T09:25:48.718Z,3.03
2023-03-15T09:28:16.756Z,4.40
2023-03-15T09:30:44.807Z,1.10
2023-03-15T09:33:14.637Z,1.67
2023-03-15T09:35:43.327Z,6.23
2023-03-15T09:38:11.682Z,2.20
2023-03-15T09:40:45.044Z,1.70
2023-03-15T09:43:51.925Z,1.53
2023-03-15T09:46:28.636Z,1.50
2023-03-15T09:49:03.881Z,1.60
2023-03-15T09:51:39.502Z,3.50
2023-03-15T09:54:12.978Z,2.23
2023-03-15T09:56:48.706Z,2.10
2023-03-15T09:59:22.644Z,1.63
2023-03-15T10:01:55.042Z,1.10
2023-03-15T10:04:28.482Z,1.53
2023-03-15T10:06:59.038Z,1.10
2023-03-15T10:09:32.973Z,1.57
2023-03-15T10:12:06.671Z,1.57
2023-03-15T10:14:49.933Z,1.70
2023-03-15T10:17:25.760Z,1.30
2023-03-15T10:20:01.189Z,1.20
2023-03-15T10:22:33.879Z,2.80
2023-03-15T10:25:10.552Z,1.40
2023-03-15T10:27:44.661Z,1.23
2023-03-15T10:30:17.952Z,0.70
2023-03-15T10:32:49.345Z,0.90
2023-03-15T10:35:19.575Z,1.07
2023-03-15T10:37:48.037Z,1.00
2023-03-15T10:40:16.703Z,1.20
2023-03-15T10:42:47.504Z,1.13
2023-03-15T10:45:21.749Z,1.00
2023-03-15T10:47:59.686Z,0.70
2023-03-15T10:50:30.930Z,0.70
2023-03-15T10:53:00.510Z,0.80
2023-03-15T10:55:33.884Z,0.80
2023-03-15T10:58:20.368Z,0.80
2023-03-15T11:00:51.808Z,0.63
2023-03-15T11:03:21.852Z,0.70
2023-03-15T11:05:52.016Z,0.70
2023-03-15T11:08:22.024Z,0.90
2023-03-15T11:10:57.931Z,0.87
2023-03-15T11:13:28.558Z,1.77
2023-03-15T11:16:05.080Z,1.27
2023-03-15T11:18:37.588Z,3.47
2023-03-15T11:21:09.399Z,1.03
2023-03-15T11:23:40.470Z,1.13
2023-03-15T11:26:25.762Z,1.30
2023-03-15T11:29:06.154Z,1.33
2023-03-15T11:31:36.719Z,1.40
2023-03-15T11:34:09.233Z,1.47
2023-03-15T11:36:41.677Z,1.83
2023-03-15T11:39:14.937Z,2.07
2023-03-15T11:41:48.445Z,2.13
2023-03-15T11:44:28.603Z,5.40
2023-03-15T11:47:02.226Z,1.40
2023-03-15T11:49:37.639Z,1.73
2023-03-15T11:52:06.748Z,2.20
2023-03-15T11:54:35.026Z,2.00
2023-03-15T11:57:04.305Z,1.40
2023-03-15T11:59:35.733Z,1.60
2023-03-15T12:02:49.270Z,2.93
2023-03-15T12:05:43.165Z,3.30
2023-03-15T12:08:25.743Z,2.00
2023-03-15T12:10:54.867Z,1.77
2023-03-15T12:13:28.668Z,2.20
2023-03-15T12:15:57.360Z,1.90
2023-03-15T12:18:33.907Z,1.97
2023-03-15T12:21:17.520Z,2.23
2023-03-15T12:23:49.457Z,2.57
2023-03-15T12:26:27.118Z,2.40
2023-03-15T12:29:06.966Z,2.70
2023-03-15T12:31:46.868Z,1.97
2023-03-15T12:34:26.010Z,2.77
2023-03-15T12:36:57.222Z,3.73
2023-03-15T12:39:40.913Z,1.87
2023-03-15T12:42:14.342Z,3.00
2023-03-15T12:44:43.722Z,2.00
2023-03-15T12:47:12.480Z,4.80
2023-03-15T12:49:43.822Z,2.03
2023-03-15T12:52:33.758Z,2.33
2023-03-15T12:55:11.853Z,1.77
2023-03-15T12:57:47.616Z,3.77
2023-03-15T13:00:18.681Z,1.60
2023-03-15T13:02:49.632Z,1.70
2023-03-15T13:05:23.646Z,1.57
2023-03-15T13:08:04.888Z,2.20
2023-03-15T13:10:39.542Z,4.07
2023-03-15T13:13:41.780Z,3.07
2023-03-15T13:16:19.794Z,3.33
2023-03-15T13:18:55.861Z,1.40
2023-03-15T13:21:32.499Z,1.87
2023-03-15T13:24:00.722Z,1.10
2023-03-15T13:26:40.373Z,2.73
2023-03-15T13:29:14.951Z,1.40
2023-03-15T13:31:43.856Z,4.30
2023-03-15T13:34:15.138Z,0.80
2023-03-15T13:36:47.755Z,2.50
2023-03-15T13:39:20.624Z,2.30
2023-03-15T13:41:48.693Z,4.20
2023-03-15T13:44:20.057Z,1.50
2023-03-15T13:46:49.484Z,1.83
2023-03-15T13:49:17.967Z,1.10
2023-03-15T13:51:49.183Z,1.43
2023-03-15T13:54:19.505Z,1.43
2023-03-15T13:56:57.568Z,4.23
2023-03-15T13:59:32.573Z,2.60
2023-03-15T14:02:03.424Z,1.63
2023-03-15T14:04:36.221Z,1.37
2023-03-15T14:07:21.244Z,2.80
2023-03-15T14:09:49.302Z,1.10
2023-03-15T14:12:23.158Z,1.10
2023-03-15T14:14:53.536Z,2.03
2023-03-15T14:17:27.595Z,1.50
2023-03-15T14:19:57.705Z,1.83
2023-03-15T14:22:27.488Z,3.57
2023-03-15T14:24:55.537Z,1.73
2023-03-15T14:27:27.196Z,3.00
2023-03-15T14:29:58.650Z,1.13
2023-03-15T14:32:30.378Z,1.83
2023-03-15T14:35:02.304Z,2.00
2023-03-15T14:37:38.605Z,2.60
2023-03-15T14:40:20.865Z,1.37
2023-03-15T14:42:49.920Z,8.37
2023-03-15T14:45:19.063Z,1.30
2023-03-15T14:47:56.643Z,2.43
2023-03-15T14:50:27.596Z,2.90
2023-03-15T14:52:58.189Z,3.63
2023-03-15T14:55:31.140Z,1.87
2023-03-15T14:57:59.179Z,1.07
2023-03-15T15:00:27.337Z,1.47
2023-03-15T15:02:57.938Z,1.80
2023-03-15T15:05:34.102Z,3.10
2023-03-15T15:08:07.414Z,1.30
2023-03-15T15:10:35.745Z,6.33
2023-03-15T15:13:07.189Z,2.17
2023-03-15T15:15:53.938Z,1.80
2023-03-15T15:18:24.281Z,1.10
2023-03-15T15:20:55.283Z,1.80
2023-03-15T15:23:28.068Z,1.53
2023-03-15T15:25:59.018Z,1.43
2023-03-15T15:28:35.136Z,1.63
2023-03-15T15:31:06.954Z,2.50
2023-03-15T15:33:35.170Z,2.87
2023-03-15T15:36:04.361Z,1.87
2023-03-15T15:38:38.728Z,3.23
2023-03-15T15:41:12.574Z,3.90
2023-03-15T15:43:40.631Z,2.37
2023-03-15T15:46:12.100Z,1.83
2023-03-15T15:48:42.163Z,1.80
2023-03-15T15:51:26.265Z,2.17
2023-03-15T15:53:57.314Z,1.57
2023-03-15T15:56:32.725Z,2.97
2023-03-15T15:59:03.058Z,1.50
2023-03-15T16:01:31.318Z,2.30
2023-03-15T16:03:59.682Z,2.60
2023-03-15T16:06:27.750Z,1.73
2023-03-15T16:08:57.552Z,1.40
2023-03-15T16:11:25.895Z,5.07
2023-03-15T16:13:54.659Z,4.60
2023-03-15T16:16:22.998Z,3.97
2023-03-15T16:18:51.171Z,4.20
2023-03-15T16:21:27.440Z,3.10
2023-03-15T16:23:59.966Z,4.40
2023-03-15T16:26:28.702Z,1.83
2023-03-15T16:28:56.834Z,1.77
2023-03-15T16:31:24.907Z,4.17
2023-03-15T16:33:52.993Z,2.30
2023-03-15T16:36:23.173Z,1.67
2023-03-15T16:38:51.286Z,3.37
2023-03-15T16:41:20.670Z,2.40
2023-03-15T16:43:49.546Z,5.43
2023-03-15T16:46:18.492Z,1.70
2023-03-15T16:48:46.613Z,2.77
2023-03-15T16:51:16.699Z,7.37
2023-03-15T16:53:45.471Z,4.40
2023-03-15T16:56:15.340Z,5.00
2023-03-15T16:58:45.138Z,4.90
2023-03-15T17:01:13.203Z,3.50
2023-03-15T17:03:41.236Z,3.77
2023-03-15T17:06:17.050Z,5.17
2023-03-15T17:08:45.212Z,3.40
2023-03-15T17:11:13.374Z,6.67
2023-03-15T17:13:41.924Z,6.97
2023-03-15T17:16:13.139Z,2.87
2023-03-15T17:18:42.936Z,7.33
2023-03-15T17:21:13.647Z,7.00
2023-03-15T17:23:42.086Z,23.57
2023-03-15T17:26:12.980Z,22.67
2023-03-15T17:28:42.601Z,25.67
2023-03-15T17:31:31.041Z,22.60
2023-03-15T17:33:59.455Z,19.00
2023-03-15T17:36:32.330Z,23.20
2023-03-15T17:39:02.716Z,29.73
2023-03-15T17:41:32.556Z,52.83
2023-03-15T17:44:00.844Z,49.93
2023-03-15T17:46:32.937Z,24.27
2023-03-15T17:49:02.880Z,6.53
2023-03-15T17:51:33.178Z,12.63
2023-03-15T17:54:02.190Z,5.87
2023-03-15T17:56:31.514Z,3.43
2023-03-15T17:58:59.606Z,3.10
2023-03-15T18:01:30.113Z,5.20
2023-03-15T18:03:58.335Z,2.43
2023-03-15T18:06:26.421Z,3.67
2023-03-15T18:08:54.439Z,4.90
2023-03-15T18:11:26.685Z,9.70
2023-03-15T18:13:55.219Z,3.57
2023-03-15T18:16:23.455Z,5.30
2023-03-15T18:18:52.831Z,4.40
2023-03-15T18:21:23.022Z,3.33
2023-03-15T18:23:51.166Z,1.70
2023-03-15T18:26:20.571Z,3.73
2023-03-15T18:28:49.129Z,3.20
2023-03-15T18:31:18.927Z,4.47
2023-03-15T18:33:47.451Z,2.33
2023-03-15T18:36:16.907Z,2.50
2023-03-15T18:38:45.369Z,5.47
2023-03-15T18:41:19.839Z,5.67
2023-03-15T18:43:50.357Z,5.77
2023-03-15T18:46:19.632Z,8.90
2023-03-15T18:48:49.847Z,4.20
2023-03-15T18:51:19.300Z,14.13
2023-03-15T18:53:47.350Z,16.27
2023-03-15T18:56:19.224Z,10.33
2023-03-15T18:58:47.415Z,10.87
2023-03-15T19:01:15.689Z,8.50
2023-03-15T19:03:44.262Z,16.97
2023-03-15T19:06:13.622Z,9.47
2023-03-15T19:08:43.028Z,6.73
2023-03-15T19:11:11.536Z,5.00
2023-03-15T19:13:39.832Z,8.87
2023-03-15T19:16:08.226Z,7.20
2023-03-15T19:18:42.568Z,3.77
2023-03-15T19:21:10.788Z,5.07
2023-03-15T19:23:39.003Z,4.87
2023-03-15T19:26:08.946Z,7.97
2023-03-15T19:28:37.000Z,4.03
2023-03-15T19:31:05.216Z,3.60
2023-03-15T19:33:34.514Z,2.67
2023-03-15T19:36:02.800Z,3.53
2023-03-15T19:38:30.898Z,1.80
2023-03-15T19:41:04.084Z,2.23
2023-03-15T19:43:33.611Z,2.43
2023-03-15T19:46:04.267Z,2.97
2023-03-15T19:48:32.382Z,2.43
2023-03-15T19:51:00.771Z,2.40
2023-03-15T19:53:30.267Z,2.20
2023-03-15T19:55:58.372Z,4.13
2023-03-15T19:58:26.437Z,3.10
2023-03-15T20:00:57.834Z,4.43
2023-03-15T20:03:25.950Z,3.37
2023-03-15T20:05:54.102Z,2.23
2023-03-15T20:08:23.362Z,2.67
2023-03-15T20:11:00.436Z,3.43
2023-03-15T20:13:28.583Z,3.10
2023-03-15T20:15:58.311Z,2.23
2023-03-15T20:18:26.547Z,2.33
2023-03-15T20:20:54.934Z,4.47
2023-03-15T20:23:23.191Z,3.60
2023-03-15T20:25:51.271Z,3.10
2023-03-15T20:28:19.323Z,6.00
2023-03-15T20:30:47.371Z,6.10
2023-03-15T20:33:16.792Z,3.10
2023-03-15T20:35:44.930Z,5.50
2023-03-15T20:38:13.240Z,4.90
2023-03-15T20:40:41.323Z,5.80
2023-03-15T20:43:11.279Z,2.30
2023-03-15T20:45:40.151Z,5.20
2023-03-15T20:48:08.213Z,3.30
2023-03-15T20:50:37.647Z,2.60
2023-03-15T20:53:05.712Z,12.63
2023-03-15T20:55:33.743Z,15.70
2023-03-15T20:58:01.810Z,13.43
2023-03-15T21:00:30.208Z,7.73
2023-03-15T21:02:58.358Z,6.40
2023-03-15T21:05:27.838Z,4.10
2023-03-15T21:07:57.273Z,6.40
2023-03-15T21:10:25.631Z,5.87
2023-03-15T21:12:53.708Z,3.20
2023-03-15T21:15:21.894Z,5.07
2023-03-15T21:17:50.031Z,3.00
2023-03-15T21:20:18.815Z,4.10
2023-03-15T21:22:46.843Z,6.43
2023-03-15T21:25:16.875Z,3.43
2023-03-15T21:27:45.122Z,5.60
2023-03-15T21:30:14.343Z,4.33
2023-03-15T21:32:43.071Z,7.23
2023-03-15T21:35:11.406Z,3.30
2023-03-15T21:37:40.093Z,5.00
2023-03-15T21:40:09.414Z,4.43
2023-03-15T21:42:39.073Z,4.17
2023-03-15T21:45:08.723Z,2.50
2023-03-15T21:47:36.875Z,3.80
2023-03-15T21:50:05.949Z,2.37
2023-03-15T21:52:34.032Z,2.00
2023-03-15T21:55:02.306Z,3.63
2023-03-15T21:57:30.445Z,3.93
2023-03-15T21:59:59.814Z,2.10
2023-03-15T22:02:27.903Z,9.13
2023-03-15T22:04:55.996Z,3.77
2023-03-15T22:07:24.071Z,1.87
2023-03-15T22:09:53.081Z,1.60
2023-03-15T22:12:21.261Z,2.33
2023-03-15T22:14:56.873Z,4.70
2023-03-15T22:17:34.086Z,2.57
2023-03-15T22:20:05.218Z,9.67
2023-03-15T22:22:33.281Z,4.37
2023-03-15T22:25:01.280Z,6.27
2023-03-15T22:27:29.300Z,5.10
2023-03-15T22:29:57.671Z,9.87
2023-03-15T22:32:25.761Z,7.90
2023-03-15T22:34:55.162Z,4.63
2023-03-15T22:37:23.871Z,4.23
2023-03-15T22:39:52.120Z,11.90
2023-03-15T22:42:20.106Z,2.47
2023-03-15T22:44:48.078Z,4.97
2023-03-15T22:47:16.153Z,2.50
2023-03-15T22:49:44.192Z,2.60
2023-03-15T22:52:13.871Z,2.37
2023-03-15T22:54:43.450Z,5.00
2023-03-15T22:57:12.276Z,1.47
2023-03-15T22:59:40.430Z,1.57
2023-03-15T23:02:08.708Z,3.27
2023-03-15T23:04:36.815Z,5.57
2023-03-15T23:07:04.949Z,3.83
2023-03-15T23:09:34.298Z,2.40
2023-03-15T23:12:02.300Z,2.00
2023-03-15T23:14:30.658Z,2.60
2023-03-15T23:16:59.186Z,5.87
2023-03-15T23:19:27.212Z,3.07
2023-03-15T23:21:55.267Z,2.53
2023-03-15T23:24:24.618Z,2.47
2023-03-15T23:26:56.408Z,2.50
2023-03-15T23:29:24.534Z,4.27
2023-03-15T23:31:52.589Z,2.07
2023-03-15T23:34:23.407Z,2.70
2023-03-15T23:36:51.516Z,4.90
2023-03-15T23:39:20.054Z,4.73
2023-03-15T23:41:48.752Z,4.80
2023-03-15T23:44:19.066Z,2.93
2023-03-15T23:46:47.128Z,3.70
2023-03-15T23:49:15.310Z,3.10
2023-03-15T23:51:43.934Z,5.20
2023-03-15T23:54:12.260Z,5.50
2023-03-15T23:56:40.330Z,4.00
2023-03-15T23:59:08.358Z,10.83
